Time;durP1;ratioP1;P1;durP2;ratioP2;P2;SDS_P1;SDS_P2;PMS_P1;PMS_P2;Temp;Humidity;BMP_temperature;BMP_pressure;BME280_temperature;BME280_humidity;BME280_pressure;Samples;Min_cycle;Max_cycle;Signal;HPM_P1;HPM_P2
2023/03/01 00:01:42;;;;;;;26.3;15.6;;;;;;;-4;83.2;100020;;;;
2023/03/01 00:12:42;;;;;;;26.3;15.6;;;;;;;-4;83.8;100020;;;;
2023/03/01 00:23:42;;;;;;;24.4;14.8;;;;;;;-3.9;83.9;100020;;;;
2023/03/01 00:33:42;;;;;;;24.4;14.8;;;;;;;-4;83.5;100000;;;;
2023/03/01 00:44:42;;;;;;;24.4;14.8;;;;;;;-4.1;83.4;100000;;;;
2023/03/01 00:54:42;;;;;;;20.5;13.8;;;;;;;-4.1;83.2;99990;;;;
2023/03/01 01:04:42;;;;;;;20.5;13.8;;;;;;;-4.2;83.3;99990;;;;
2023/03/01 01:15:42;;;;;;;20.5;13.8;;;;;;;-4.3;83.1;99980;;;;
2023/03/01 01:25:42;;;;;;;20;12.1;;;;;;;-4.4;83.2;99970;;;;
2023/03/01 01:36:42;;;;;;;20;12.1;;;;;;;-4.4;83.5;99950;;;;
2023/03/01 01:47:42;;;;;;;26.3;15.3;;;;;;;-4.5;83.4;99950;;;;
2023/03/01 01:57:42;;;;;;;26.3;15.3;;;;;;;-4.5;83.6;99940;;;;
2023/03/01 02:07:42;;;;;;;26.3;15.3;;;;;;;-4.6;83.6;99950;;;;
2023/03/01 02:18:42;;;;;;;31;18.3;;;;;;;-4.7;83.5;99940;;;;
2023/03/01 02:28:42;;;;;;;31;18.3;;;;;;;-4.9;83.8;99940;;;;
2023/03/01 02:38:42;;;;;;;31;18.3;;;;;;;-5;84;99940;;;;
2023/03/01 02:49:42;;;;;;;43.5;24.7;;;;;;;-5;84.3;99950;;;;
2023/03/01 03:00:45;;;;;;;43.5;24.7;;;;;;;-5;84.6;99950;;;;
2023/03/01 03:11:42;;;;;;;43.5;24.7;;;;;;;-5.1;84.8;99950;;;;
2023/03/01 03:21:42;;;;;;;41.7;25.5;;;;;;;-5.1;85.2;99940;;;;
2023/03/01 03:32:42;;;;;;;41.7;25.5;;;;;;;-5.1;85.4;99940;;;;
2023/03/01 03:43:43;;;;;;;41.7;25.5;;;;;;;-5;85.1;99930;;;;
2023/03/01 03:53:42;;;;;;;46.5;29.3;;;;;;;-4.9;84.8;99920;;;;
2023/03/01 04:04:42;;;;;;;46.5;29.3;;;;;;;-4.9;84.8;99920;;;;
2023/03/01 04:14:42;;;;;;;46.5;29.3;;;;;;;-5.1;84.8;99940;;;;
2023/03/01 04:24:42;;;;;;;41;29.1;;;;;;;-5.1;84.6;99940;;;;
2023/03/01 04:34:42;;;;;;;41;29.1;;;;;;;-5.2;84.5;99940;;;;
2023/03/01 04:45:42;;;;;;;41;29.1;;;;;;;-5.1;84.4;99940;;;;
2023/03/01 04:56:42;;;;;;;38.1;24.2;;;;;;;-5.2;84.4;99930;;;;
2023/03/01 05:06:42;;;;;;;38.1;24.2;;;;;;;-5.1;84.7;99910;;;;
2023/03/01 05:16:42;;;;;;;39.7;22.7;;;;;;;-5;84.7;99910;;;;
2023/03/01 05:26:42;;;;;;;39.7;22.7;;;;;;;-5;84.5;99910;;;;
2023/03/01 05:36:42;;;;;;;39.7;22.7;;;;;;;-5;84.2;99900;;;;
2023/03/01 05:47:43;;;;;;;34.9;22.1;;;;;;;-5;83.9;99910;;;;
2023/03/01 05:58:42;;;;;;;34.9;22.1;;;;;;;-4.9;84;99920;;;;
2023/03/01 06:08:42;;;;;;;34.9;22.1;;;;;;;-4.9;84.6;99930;;;;
2023/03/01 06:19:42;;;;;;;32.3;22.5;;;;;;;-4.6;84.8;99930;;;;
2023/03/01 06:29:42;;;;;;;32.3;22.5;;;;;;;-4.5;84.6;99930;;;;
2023/03/01 06:40:42;;;;;;;32.3;22.5;;;;;;;-4.2;84.8;99930;;;;
2023/03/01 06:50:42;;;;;;;46.2;23.6;;;;;;;-3.8;85;99930;;;;
2023/03/01 07:00:43;;;;;;;46.2;23.6;;;;;;;-3.4;85.2;99920;;;;
2023/03/01 07:11:42;;;;;;;46.2;23.6;;;;;;;-2.8;85.4;99930;;;;
2023/03/01 07:22:42;;;;;;;57.7;30.7;;;;;;;-2.4;85.1;99920;;;;
2023/03/01 07:33:42;;;;;;;57.7;30.7;;;;;;;-2;84.9;99890;;;;
2023/03/01 07:43:42;;;;;;;57.7;30.7;;;;;;;-1.5;84;99880;;;;
2023/03/01 07:53:42;;;;;;;54.5;29.8;;;;;;;-1.1;83.4;99860;;;;
2023/03/01 08:04:42;;;;;;;54.5;29.8;;;;;;;-0.7;82.2;99870;;;;
2023/03/01 08:15:42;;;;;;;55.3;30.4;;;;;;;-0.2;81.1;99890;;;;
2023/03/01 08:25:42;;;;;;;55.3;30.4;;;;;;;0.2;80.3;99890;;;;
2023/03/01 08:36:42;;;;;;;55.3;30.4;;;;;;;0.6;79.6;99880;;;;
2023/03/01 08:46:42;;;;;;;54.2;34.1;;;;;;;1.2;79.2;99850;;;;
2023/03/01 08:57:42;;;;;;;54.2;34.1;;;;;;;1.7;78.4;99850;;;;
2023/03/01 09:07:42;;;;;;;54.2;34.1;;;;;;;2.2;75.7;99850;;;;
2023/03/01 09:18:42;;;;;;;44.2;27.4;;;;;;;2.5;71.8;99850;;;;
2023/03/01 09:29:42;;;;;;;44.2;27.4;;;;;;;3;69.2;99840;;;;
2023/03/01 09:40:42;;;;;;;44.2;27.4;;;;;;;3.3;66.7;99840;;;;
2023/03/01 09:51:42;;;;;;;28.6;19.4;;;;;;;3.6;65.9;99840;;;;
2023/03/01 10:02:42;;;;;;;28.6;19.4;;;;;;;3.8;63.9;99830;;;;
2023/03/01 10:12:42;;;;;;;28.6;19.4;;;;;;;4.1;62.8;99830;;;;
2023/03/01 10:23:42;;;;;;;32.6;17.6;;;;;;;4.4;60.9;99820;;;;
2023/03/01 10:33:42;;;;;;;32.6;17.6;;;;;;;4.7;62;99800;;;;
2023/03/01 10:44:42;;;;;;;32.6;17.6;;;;;;;5.1;58.9;99800;;;;
2023/03/01 10:54:42;;;;;;;30.2;20.2;;;;;;;5.1;58.9;99800;;;;
2023/03/01 11:04:42;;;;;;;30.2;20.2;;;;;;;5.3;57.3;99790;;;;
2023/03/01 11:14:42;;;;;;;30.2;20.2;;;;;;;5.4;57;99780;;;;
2023/03/01 11:24:42;;;;;;;30.1;22.8;;;;;;;5.5;56;99770;;;;
2023/03/01 11:35:42;;;;;;;30.1;22.8;;;;;;;5.7;53.7;99760;;;;
2023/03/01 11:46:42;;;;;;;27.8;18.5;;;;;;;5.6;53;99750;;;;
2023/03/01 11:56:42;;;;;;;27.8;18.5;;;;;;;5.8;52.8;99740;;;;
2023/03/01 12:06:42;;;;;;;27.8;18.5;;;;;;;5.7;53.6;99730;;;;
2023/03/01 12:17:42;;;;;;;24.9;18.7;;;;;;;5.5;54.6;99720;;;;
2023/03/01 12:28:42;;;;;;;24.9;18.7;;;;;;;6;53.9;99710;;;;
2023/03/01 12:38:42;;;;;;;24.9;18.7;;;;;;;6.3;53.7;99690;;;;
2023/03/01 12:49:42;;;;;;;28.5;21;;;;;;;6.3;52.6;99680;;;;
2023/03/01 12:59:42;;;;;;;28.5;21;;;;;;;6.3;51.3;99680;;;;
2023/03/01 13:10:42;;;;;;;28.5;21;;;;;;;6.6;49;99670;;;;
2023/03/01 13:20:42;;;;;;;28.4;21.2;;;;;;;6.6;48;99660;;;;
2023/03/01 13:31:42;;;;;;;28.4;21.2;;;;;;;6.6;47.5;99660;;;;
2023/03/01 13:42:43;;;;;;;28.4;21.2;;;;;;;6.5;47.1;99650;;;;
2023/03/01 13:53:42;;;;;;;27.6;18.5;;;;;;;6.5;45.9;99650;;;;
2023/03/01 14:03:42;;;;;;;27.6;18.5;;;;;;;6.6;46.1;99630;;;;
2023/03/01 14:14:42;;;;;;;23.4;16.7;;;;;;;6.3;44.8;99620;;;;
2023/03/01 14:25:42;;;;;;;23.4;16.7;;;;;;;6.5;45.5;99610;;;;
2023/03/01 14:36:42;;;;;;;23.4;16.7;;;;;;;6.5;44.2;99610;;;;
2023/03/01 14:47:42;;;;;;;26.8;19.3;;;;;;;6.2;44.9;99610;;;;
2023/03/01 14:58:42;;;;;;;26.8;19.3;;;;;;;6.1;47.4;99610;;;;
2023/03/01 15:08:42;;;;;;;26.8;19.3;;;;;;;6;47.2;99600;;;;
2023/03/01 15:19:43;;;;;;;23;17.7;;;;;;;5.6;47;99610;;;;
2023/03/01 15:30:42;;;;;;;23;17.7;;;;;;;5.3;48.6;99610;;;;
2023/03/01 15:41:42;;;;;;;23;17.7;;;;;;;4.9;49.3;99600;;;;
2023/03/01 15:52:42;;;;;;;20.5;13.6;;;;;;;4.5;50.5;99600;;;;
2023/03/01 16:03:42;;;;;;;20.5;13.6;;;;;;;4;52;99600;;;;
2023/03/01 16:13:42;;;;;;;20.5;13.6;;;;;;;3.5;53.4;99610;;;;
2023/03/01 16:23:42;;;;;;;18.5;10.1;;;;;;;2.8;54.5;99620;;;;
2023/03/01 16:34:42;;;;;;;18.5;10.1;;;;;;;2.3;56.1;99620;;;;
2023/03/01 16:44:42;;;;;;;19.7;10.8;;;;;;;1.8;57.3;99630;;;;
2023/03/01 16:54:42;;;;;;;19.7;10.8;;;;;;;1.5;59.9;99630;;;;
2023/03/01 17:05:42;;;;;;;19.7;10.8;;;;;;;1.2;61.7;99630;;;;
2023/03/01 17:15:43;;;;;;;18;11;;;;;;;1.1;63.4;99640;;;;
2023/03/01 17:26:42;;;;;;;18;11;;;;;;;0.9;65.2;99640;;;;
2023/03/01 17:37:45;;;;;;;18;11;;;;;;;0.6;66.2;99650;;;;
2023/03/01 17:47:42;;;;;;;24.1;14.1;;;;;;;0.5;66.9;99640;;;;
2023/03/01 17:58:42;;;;;;;24.1;14.1;;;;;;;0.3;67.1;99650;;;;
2023/03/01 18:08:44;;;;;;;24.1;14.1;;;;;;;0.2;68.2;99650;;;;
2023/03/01 18:19:43;;;;;;;46;26.6;;;;;;;0.1;68;99650;;;;
2023/03/01 18:30:42;;;;;;;46;26.6;;;;;;;-0.1;68.6;99640;;;;
2023/03/01 18:40:42;;;;;;;46;26.6;;;;;;;0;68.9;99630;;;;
2023/03/01 18:50:42;;;;;;;34.9;20.8;;;;;;;-0.2;68.4;99620;;;;
2023/03/01 19:01:42;;;;;;;34.9;20.8;;;;;;;-0.5;68.5;99620;;;;
2023/03/01 19:11:42;;;;;;;34.9;20.8;;;;;;;-0.5;69.1;99620;;;;
2023/03/01 19:21:43;;;;;;;67.5;30.4;;;;;;;-0.7;68.6;99620;;;;
2023/03/01 19:32:42;;;;;;;67.5;30.4;;;;;;;-0.8;68.3;99620;;;;
2023/03/01 19:42:42;;;;;;;67.5;30.4;;;;;;;-1.1;68.5;99620;;;;
2023/03/01 19:53:42;;;;;;;35.3;19.9;;;;;;;-1.4;68.8;99620;;;;
2023/03/01 20:03:42;;;;;;;35.3;19.9;;;;;;;-1.8;69.7;99630;;;;
2023/03/01 20:13:42;;;;;;;43.1;23.6;;;;;;;-2.1;70.8;99640;;;;
2023/03/01 20:24:42;;;;;;;43.1;23.6;;;;;;;-2.4;71.9;99640;;;;
2023/03/01 20:35:42;;;;;;;43.1;23.6;;;;;;;-2.5;74.1;99630;;;;
2023/03/01 20:45:42;;;;;;;45.1;25.8;;;;;;;-2.6;74.9;99620;;;;
2023/03/01 20:55:42;;;;;;;45.1;25.8;;;;;;;-2.7;74.9;99620;;;;
2023/03/01 21:06:42;;;;;;;45.1;25.8;;;;;;;-2.8;74.9;99620;;;;
2023/03/01 21:16:44;;;;;;;32.8;20.6;;;;;;;-3;74.8;99630;;;;
2023/03/01 21:27:42;;;;;;;32.8;20.6;;;;;;;-3.1;75.8;99630;;;;
2023/03/01 21:37:42;;;;;;;32.8;20.6;;;;;;;-3.1;76.5;99620;;;;
2023/03/01 21:48:42;;;;;;;34.1;22.2;;;;;;;-3.2;76.5;99630;;;;
2023/03/01 21:58:42;;;;;;;34.1;22.2;;;;;;;-3.3;77.5;99620;;;;
2023/03/01 22:09:42;;;;;;;34.1;22.2;;;;;;;-3.4;77.7;99620;;;;
2023/03/01 22:20:42;;;;;;;40.8;27.4;;;;;;;-3.5;79.5;99620;;;;
2023/03/01 22:31:42;;;;;;;40.8;27.4;;;;;;;-3.5;80.5;99620;;;;
2023/03/01 22:41:44;;;;;;;40.8;27.4;;;;;;;-3.5;80.1;99620;;;;
2023/03/01 22:51:43;;;;;;;46.7;25.3;;;;;;;-3.5;80.4;99610;;;;
2023/03/01 23:01:43;;;;;;;46.7;25.3;;;;;;;-3.6;80.3;99600;;;;
2023/03/01 23:12:42;;;;;;;46.7;25.3;;;;;;;-3.6;80.1;99600;;;;
2023/03/01 23:22:43;;;;;;;40.9;24.1;;;;;;;-3.7;79.9;99600;;;;
2023/03/01 23:33:43;;;;;;;40.9;24.1;;;;;;;-3.8;79.7;99600;;;;
2023/03/01 23:43:42;;;;;;;39.5;24.3;;;;;;;-3.9;79.6;99600;;;;
2023/03/01 23:53:42;;;;;;;39.5;24.3;;;;;;;-4;79.8;99600;;;;
